Time;durP1;ratioP1;P1;durP2;ratioP2;P2;SDS_P1;SDS_P2;PMS_P1;PMS_P2;Temp;Humidity;BMP_temperature;BMP_pressure;BME280_temperature;BME280_humidity;BME280_pressure;Samples;Min_cycle;Max_cycle;Signal;HPM_P1;HPM_P2
2022/07/05 00:00:09;;;;;;;9.18;1.67;;;;;;;14.01;90.24;101713.59;4993666;28;20789;-48
2022/07/05 00:02:40;;;;;;;5.47;1.63;;;;;;;13.99;90.46;101710.09;4994113;28;20170;-49
2022/07/05 00:05:06;;;;;;;6.15;2.10;;;;;;;13.99;90.13;101718.19;4993067;28;20276;-49
2022/07/05 00:07:31;;;;;;;4.45;1.70;;;;;;;13.92;90.09;101713.94;4993833;28;20197;-51
2022/07/05 00:09:57;;;;;;;4.22;1.52;;;;;;;13.99;90.14;101715.47;4993844;28;20164;-48
2022/07/05 00:12:29;;;;;;;5.20;1.92;;;;;;;13.92;89.76;101713.94;4993356;28;20213;-48
2022/07/05 00:14:55;;;;;;;5.15;1.95;;;;;;;13.90;89.83;101701.47;4993122;28;20165;-50
2022/07/05 00:17:21;;;;;;;5.00;1.67;;;;;;;13.64;90.53;101708.69;4993255;28;20205;-48
2022/07/05 00:19:47;;;;;;;6.47;2.22;;;;;;;13.65;91.16;101715.84;4993542;28;20177;-48
2022/07/05 00:22:12;;;;;;;5.50;1.75;;;;;;;13.75;91.71;101717.28;4993402;28;20548;-48
2022/07/05 00:24:38;;;;;;;3.53;1.52;;;;;;;13.76;91.26;101708.25;4992877;28;20192;-52
2022/07/05 00:27:04;;;;;;;4.63;1.77;;;;;;;13.72;91.21;101706.59;4993198;28;20284;-46
2022/07/05 00:29:29;;;;;;;8.82;1.92;;;;;;;13.69;91.22;101711.25;4993277;28;20165;-49
2022/07/05 00:31:56;;;;;;;5.45;2.10;;;;;;;13.66;91.83;101708.66;4992804;28;20238;-49
2022/07/05 00:34:21;;;;;;;5.28;1.70;;;;;;;13.62;91.76;101707.00;4992952;28;20590;-49
2022/07/05 00:36:47;;;;;;;3.63;1.42;;;;;;;13.37;92.56;101710.59;4993655;28;20196;-50
2022/07/05 00:39:13;;;;;;;3.08;1.58;;;;;;;13.51;93.29;101713.69;4975232;28;20637;-49
2022/07/05 00:41:39;;;;;;;4.63;1.88;;;;;;;13.46;93.12;101704.00;4992852;28;20213;-48
2022/07/05 00:44:10;;;;;;;4.05;1.65;;;;;;;13.43;93.52;101714.91;4958776;28;20243;-49
2022/07/05 00:46:37;;;;;;;5.97;2.08;;;;;;;13.48;93.53;101716.47;4975051;28;20185;-48
2022/07/05 00:49:04;;;;;;;6.65;1.88;;;;;;;13.41;93.77;101706.88;4975260;28;20676;-47
2022/07/05 00:51:31;;;;;;;7.05;1.90;;;;;;;13.35;93.80;101712.47;4992729;28;20201;-48
2022/07/05 00:53:58;;;;;;;7.60;2.05;;;;;;;13.35;94.17;101699.88;4992292;28;20193;-50
2022/07/05 00:56:24;;;;;;;3.25;1.85;;;;;;;13.41;94.29;101706.00;4975066;28;20186;-48
2022/07/05 00:58:51;;;;;;;6.35;2.00;;;;;;;13.49;93.59;101709.25;4992408;28;20275;-48
2022/07/05 01:01:17;;;;;;;3.20;2.03;;;;;;;13.51;93.74;101711.00;4992468;28;20708;-49
2022/07/05 01:03:43;;;;;;;4.80;2.03;;;;;;;13.46;93.34;101702.19;4991705;28;20189;-49
2022/07/05 01:06:10;;;;;;;4.85;1.95;;;;;;;13.37;93.79;101706.09;4974956;28;20178;-48
2022/07/05 01:08:39;;;;;;;6.78;1.92;;;;;;;13.48;94.10;101705.69;4992279;28;20213;-48
2022/07/05 01:11:06;;;;;;;7.63;2.13;;;;;;;13.48;93.84;101712.91;4974640;28;20425;-48
2022/07/05 01:13:33;;;;;;;3.63;1.85;;;;;;;13.46;93.68;101699.50;4991962;28;20177;-49
2022/07/05 01:16:01;;;;;;;5.95;2.28;;;;;;;13.35;93.73;101709.78;4992220;28;20708;-47
2022/07/05 01:18:27;;;;;;;4.18;1.80;;;;;;;13.29;94.55;101716.22;4974952;28;20715;-49
2022/07/05 01:20:53;;;;;;;4.00;1.90;;;;;;;13.16;95.17;101705.03;4974609;28;20587;-48
2022/07/05 01:23:18;;;;;;;5.18;1.83;;;;;;;13.16;95.33;101704.13;4991500;28;20181;-50
2022/07/05 01:25:46;;;;;;;7.85;2.45;;;;;;;13.10;95.76;101704.34;4991932;28;20166;-48
2022/07/05 01:28:12;;;;;;;11.15;2.83;;;;;;;13.09;96.25;101699.88;4991962;28;20197;-49
2022/07/05 01:30:39;;;;;;;5.65;1.73;;;;;;;13.11;96.38;101711.47;4974423;28;20246;-49
2022/07/05 01:33:06;;;;;;;7.00;2.25;;;;;;;13.05;96.36;101700.94;4991861;28;20597;-50
2022/07/05 01:35:31;;;;;;;7.47;2.28;;;;;;;13.06;96.55;101700.88;4992295;28;20709;-50
2022/07/05 01:37:57;;;;;;;9.10;2.22;;;;;;;13.16;96.43;101702.34;4974026;28;20193;-48
2022/07/05 01:40:22;;;;;;;8.38;2.65;;;;;;;13.13;96.23;101710.50;4992057;28;20548;-48
2022/07/05 01:42:48;;;;;;;4.50;2.80;;;;;;;13.06;96.53;101700.88;4991633;28;20173;-48
2022/07/05 01:48:01;;;;;;;7.22;2.33;;;;;;;13.11;96.76;101708.78;4991612;28;20204;-49
2022/07/05 01:50:31;;;;;;;7.15;2.38;;;;;;;13.01;96.80;101710.03;4991395;28;20205;-49
2022/07/05 01:53:00;;;;;;;3.92;2.10;;;;;;;13.04;97.45;101693.81;4948141;28;20201;-49
2022/07/05 01:55:26;;;;;;;4.40;2.30;;;;;;;13.04;97.45;101699.19;4984551;28;20233;-50
2022/07/05 01:57:52;;;;;;;6.80;2.50;;;;;;;13.11;97.61;101698.91;4990257;28;20202;-48
2022/07/05 02:00:18;;;;;;;5.57;2.17;;;;;;;13.14;97.42;101695.22;4973536;28;20184;-50
2022/07/05 02:02:44;;;;;;;6.25;2.45;;;;;;;13.12;97.29;101691.72;4990997;28;20327;-50
2022/07/05 02:05:10;;;;;;;5.22;2.42;;;;;;;13.08;97.82;101693.63;4991241;28;20611;-48
2022/07/05 02:07:36;;;;;;;8.88;2.30;;;;;;;12.98;97.88;101700.25;4973531;28;20198;-47
2022/07/05 02:10:02;;;;;;;7.95;2.50;;;;;;;13.02;97.87;101690.28;4973628;28;20204;-47
2022/07/05 02:12:27;;;;;;;8.70;2.78;;;;;;;13.03;98.16;101695.63;4990758;28;20676;-50
2022/07/05 02:14:53;;;;;;;9.00;2.25;;;;;;;13.08;98.01;101693.63;4990890;28;20188;-48
2022/07/05 02:17:20;;;;;;;4.13;2.65;;;;;;;13.07;97.72;101691.00;4973761;28;20201;-48
2022/07/05 02:19:50;;;;;;;6.82;2.38;;;;;;;13.07;97.73;101697.25;4972839;28;20567;-48
2022/07/05 02:22:17;;;;;;;7.15;2.30;;;;;;;13.09;97.68;101692.69;4973519;28;20236;-50
2022/07/05 02:24:42;;;;;;;8.32;2.40;;;;;;;13.10;97.81;101701.66;4956442;28;20193;-49
2022/07/05 02:27:15;;;;;;;8.52;2.67;;;;;;;13.12;97.92;101694.41;4973275;28;20208;-49
2022/07/05 02:29:41;;;;;;;5.00;2.70;;;;;;;13.11;97.73;101693.53;4990815;28;20189;-49
2022/07/05 02:32:08;;;;;;;9.90;2.78;;;;;;;13.11;97.87;101695.34;4973341;28;20211;-49
2022/07/05 02:34:34;;;;;;;5.32;2.40;;;;;;;13.16;97.50;101696.03;4972844;28;20181;-48
2022/07/05 02:36:59;;;;;;;7.70;2.42;;;;;;;13.16;97.55;101701.44;4990877;28;20253;-49
2022/07/05 02:39:26;;;;;;;7.35;2.42;;;;;;;13.23;97.07;101688.63;4973056;28;20184;-48
2022/07/05 02:41:54;;;;;;;7.00;2.28;;;;;;;13.27;96.79;101707.34;4990676;28;20177;-48
2022/07/05 02:44:19;;;;;;;9.45;2.63;;;;;;;13.25;96.54;101694.84;4972495;28;20559;-48
2022/07/05 02:46:46;;;;;;;6.90;2.42;;;;;;;13.33;96.67;101693.66;4973226;28;20250;-48
2022/07/05 02:49:11;;;;;;;5.63;2.00;;;;;;;13.37;96.34;101694.44;4957210;28;20188;-49
2022/07/05 02:51:39;;;;;;;8.18;2.53;;;;;;;13.30;96.10;101698.31;4972713;28;20715;-49
2022/07/05 02:54:08;;;;;;;7.60;2.45;;;;;;;13.37;96.05;101702.53;4972597;28;20285;-49
2022/07/05 02:56:34;;;;;;;6.00;2.40;;;;;;;13.38;95.93;101715.03;4990336;28;20173;-48
2022/07/05 02:59:00;;;;;;;8.57;2.58;;;;;;;13.43;96.10;101707.69;4979210;28;20216;-48
2022/07/05 03:01:29;;;;;;;4.70;2.00;;;;;;;13.39;95.83;101714.13;4953732;28;20166;-49
2022/07/05 03:03:55;;;;;;;7.30;2.20;;;;;;;13.49;96.06;101707.47;4953479;28;20621;-50
2022/07/05 03:06:21;;;;;;;5.38;2.40;;;;;;;13.43;95.44;101718.47;4953483;28;20273;-49
2022/07/05 03:08:47;;;;;;;8.02;2.38;;;;;;;13.47;96.01;101709.34;4953600;28;20589;-48
2022/07/05 03:11:13;;;;;;;8.68;2.42;;;;;;;13.50;95.71;101722.69;4956896;28;20202;-49
2022/07/05 03:13:39;;;;;;;6.95;2.20;;;;;;;13.52;95.84;101719.94;4974488;28;20178;-48
2022/07/05 03:16:04;;;;;;;8.15;2.13;;;;;;;13.48;95.79;101720.97;4957333;28;20558;-48
2022/07/05 03:18:30;;;;;;;5.70;2.50;;;;;;;13.47;95.85;101722.81;4974940;28;20269;-49
2022/07/05 03:20:56;;;;;;;8.68;2.40;;;;;;;13.52;95.75;101720.81;4957729;28;20655;-50
2022/07/05 03:23:25;;;;;;;6.20;2.20;;;;;;;13.54;95.67;101724.34;4956820;28;20186;-49
2022/07/05 03:25:55;;;;;;;6.63;2.38;;;;;;;13.57;95.46;101715.25;4957565;28;20668;-51
2022/07/05 03:28:21;;;;;;;5.95;2.10;;;;;;;13.57;95.62;101716.13;4957325;28;20205;-49
2022/07/05 03:30:49;;;;;;;5.18;2.33;;;;;;;13.54;95.77;101726.16;4957625;28;20214;-48
2022/07/05 03:33:16;;;;;;;5.88;2.00;;;;;;;13.58;95.72;101717.91;4956797;28;20213;-48
2022/07/05 03:35:44;;;;;;;6.68;2.20;;;;;;;13.55;95.81;101728.75;4957519;28;20213;-49
2022/07/05 03:38:11;;;;;;;4.72;2.13;;;;;;;13.54;95.93;101732.41;4974632;28;20288;-50
2022/07/05 03:40:37;;;;;;;5.18;2.35;;;;;;;13.56;95.66;101727.84;4975077;28;20170;-48
2022/07/05 03:43:03;;;;;;;12.93;2.80;;;;;;;13.50;95.46;101725.38;4956745;28;20174;-48
2022/07/05 03:45:32;;;;;;;6.40;2.15;;;;;;;13.52;95.74;101730.72;4974649;28;20182;-50
2022/07/05 03:47:59;;;;;;;4.03;2.00;;;;;;;13.42;95.49;101734.66;4957144;28;20265;-49
2022/07/05 03:50:27;;;;;;;4.90;2.17;;;;;;;13.43;95.78;101734.63;4941254;28;20186;-50
2022/07/05 03:52:52;;;;;;;5.88;2.20;;;;;;;13.33;95.99;101735.88;4978078;28;20586;-51
2022/07/05 03:55:18;;;;;;;7.38;2.30;;;;;;;13.35;96.01;101736.69;4980144;28;20177;-49
2022/07/05 03:57:44;;;;;;;2.00;1.80;;;;;;;13.23;95.99;101746.06;4993430;28;20676;-48
2022/07/05 04:00:11;;;;;;;3.97;1.90;;;;;;;13.24;95.90;101737.03;4994103;28;20544;-48
2022/07/05 04:02:44;;;;;;;5.22;2.17;;;;;;;13.33;95.89;101741.25;4973179;28;21151;-48
2022/07/05 04:05:13;;;;;;;3.97;2.00;;;;;;;13.29;95.67;101740.47;4975216;28;20181;-49
2022/07/05 04:07:51;;;;;;;5.93;2.17;;;;;;;13.30;95.61;101741.38;4976244;28;20620;-48
2022/07/05 04:10:21;;;;;;;3.92;1.70;;;;;;;13.24;95.30;101736.16;4975942;28;20556;-48
2022/07/05 04:12:48;;;;;;;7.88;1.90;;;;;;;13.31;95.36;101745.81;4976058;28;20614;-49
2022/07/05 04:15:14;;;;;;;8.23;2.20;;;;;;;13.35;95.18;101734.88;4975735;28;20181;-48
2022/07/05 04:17:51;;;;;;;5.65;1.80;;;;;;;13.50;94.77;101746.03;4992219;28;20201;-48
2022/07/05 04:20:16;;;;;;;3.58;1.63;;;;;;;13.46;94.28;101737.19;4992023;28;20671;-48
2022/07/05 04:22:43;;;;;;;5.78;1.85;;;;;;;13.54;93.91;101735.09;4991414;28;20166;-48
2022/07/05 04:25:16;;;;;;;2.95;1.40;;;;;;;13.58;93.83;101739.44;4991886;28;20189;-49
2022/07/05 04:27:47;;;;;;;5.80;2.13;;;;;;;13.46;93.67;101729.09;4992141;28;20193;-48
2022/07/05 04:30:14;;;;;;;8.52;2.35;;;;;;;13.45;93.84;101740.81;4993157;28;20269;-48
2022/07/05 04:32:41;;;;;;;4.65;1.70;;;;;;;13.51;93.83;101743.31;4975607;28;20197;-50
2022/07/05 04:35:07;;;;;;;4.70;1.55;;;;;;;13.51;93.72;101739.69;4993262;28;20169;-49
2022/07/05 04:37:33;;;;;;;6.10;1.90;;;;;;;13.53;94.08;101727.06;4991751;28;20230;-48
2022/07/05 04:39:59;;;;;;;4.93;1.95;;;;;;;13.51;93.98;101743.31;4975710;28;20169;-49
2022/07/05 04:42:24;;;;;;;8.35;2.00;;;;;;;13.46;94.13;101734.50;4991663;28;20170;-49
2022/07/05 04:44:50;;;;;;;3.15;1.40;;;;;;;13.40;94.05;101737.41;4991265;28;20193;-51
2022/07/05 04:47:16;;;;;;;4.07;1.67;;;;;;;13.41;94.46;101739.16;4992599;28;20692;-49
2022/07/05 04:49:41;;;;;;;2.40;1.77;;;;;;;13.47;94.74;101743.44;4993318;28;20174;-48
2022/07/05 04:52:07;;;;;;;6.43;2.05;;;;;;;13.58;94.31;101736.75;4975528;28;20209;-49
2022/07/05 04:54:36;;;;;;;5.38;1.55;;;;;;;13.64;94.16;101740.16;4991443;28;20681;-50
2022/07/05 04:57:01;;;;;;;3.45;1.63;;;;;;;13.78;94.02;101738.72;4975173;28;20197;-49
2022/07/05 04:59:27;;;;;;;6.15;1.60;;;;;;;13.90;93.19;101744.56;4992303;28;20236;-50
2022/07/05 05:01:52;;;;;;;3.33;1.40;;;;;;;14.01;92.73;101739.66;4992822;28;20276;-48
2022/07/05 05:04:18;;;;;;;4.50;1.70;;;;;;;14.07;91.64;101750.19;4992312;28;20200;-48
2022/07/05 05:06:43;;;;;;;5.57;1.52;;;;;;;14.21;91.28;101747.88;4975337;28;20173;-50
2022/07/05 05:09:09;;;;;;;5.78;1.65;;;;;;;14.38;90.55;101743.63;4992498;28;20708;-50
2022/07/05 05:11:34;;;;;;;5.20;1.45;;;;;;;14.46;89.84;101749.59;4992521;28;20197;-50
2022/07/05 05:14:00;;;;;;;7.40;1.75;;;;;;;14.53;89.54;101742.13;4991623;28;20197;-49
2022/07/05 05:16:25;;;;;;;5.63;1.30;;;;;;;14.62;88.90;101745.34;4975048;28;20287;-51
2022/07/05 05:18:50;;;;;;;4.40;1.20;;;;;;;14.90;88.69;101763.13;4992344;28;20231;-49
2022/07/05 05:21:16;;;;;;;3.72;1.42;;;;;;;15.10;87.67;101751.50;4992664;28;20205;-48
2022/07/05 05:23:42;;;;;;;6.10;1.33;;;;;;;15.12;87.14;101764.94;4991651;28;20185;-49
2022/07/05 05:26:07;;;;;;;7.15;1.40;;;;;;;14.93;87.13;101762.13;4992044;28;20625;-50
2022/07/05 05:28:33;;;;;;;11.68;1.33;;;;;;;14.86;87.25;101763.31;4992139;28;20197;-48
2022/07/05 05:30:59;;;;;;;8.95;1.67;;;;;;;14.93;87.23;101757.59;4992050;28;20666;-49
2022/07/05 05:33:24;;;;;;;8.13;1.40;;;;;;;14.88;86.94;101772.22;4990907;28;20187;-48
2022/07/05 05:35:50;;;;;;;2.95;1.15;;;;;;;14.94;86.37;101758.50;4991939;28;20177;-48
2022/07/05 05:38:15;;;;;;;8.15;1.35;;;;;;;15.20;86.41;101762.78;4992090;28;20536;-49
2022/07/05 05:40:42;;;;;;;6.78;1.30;;;;;;;15.29;85.32;101765.09;4991682;28;20575;-48
2022/07/05 05:43:07;;;;;;;6.70;1.60;;;;;;;15.32;84.42;101758.69;4991760;28;20187;-48
2022/07/05 05:45:33;;;;;;;3.17;1.02;;;;;;;15.31;84.73;101751.53;4991852;28;20170;-48
2022/07/05 05:47:59;;;;;;;9.50;1.73;;;;;;;15.34;85.28;101752.25;4991961;28;20208;-48
2022/07/05 05:50:28;;;;;;;5.68;1.35;;;;;;;15.33;85.17;101755.03;4991854;28;20165;-50
2022/07/05 05:52:54;;;;;;;3.88;1.15;;;;;;;15.54;84.75;101764.00;4992236;28;20173;-48
2022/07/05 05:55:21;;;;;;;8.18;1.50;;;;;;;15.59;83.92;101765.59;4991382;28;20735;-47
2022/07/05 05:57:47;;;;;;;2.67;1.08;;;;;;;15.60;83.93;101764.63;4989810;28;20684;-47
2022/07/05 06:00:14;;;;;;;2.00;0.88;;;;;;;15.69;84.43;101773.28;4972453;28;20182;-48
2022/07/05 06:02:41;;;;;;;8.75;1.50;;;;;;;15.76;83.66;101770.25;4972098;28;20626;-47
2022/07/05 06:05:07;;;;;;;4.88;1.33;;;;;;;15.98;82.97;101767.47;4971975;28;20182;-48
2022/07/05 06:07:48;;;;;;;4.53;1.25;;;;;;;16.19;81.86;101770.13;4954846;28;20198;-47
2022/07/05 06:10:19;;;;;;;4.57;1.30;;;;;;;16.14;81.86;101775.75;4971685;28;20388;-45
2022/07/05 06:12:45;;;;;;;3.72;1.02;;;;;;;16.38;81.29;101767.44;4971915;28;20202;-45
2022/07/05 06:15:11;;;;;;;6.90;1.35;;;;;;;16.30;80.41;101772.31;4971803;28;20276;-45
2022/07/05 06:17:37;;;;;;;5.25;1.20;;;;;;;16.48;80.92;101764.19;4971425;28;20391;-45
2022/07/05 06:20:30;;;;;;;3.75;1.38;;;;;;;17.12;79.67;101767.44;4972236;28;20653;-46
2022/07/05 06:22:57;;;;;;;3.75;1.10;;;;;;;17.04;77.61;101766.94;4969089;28;20209;-46
2022/07/05 06:25:24;;;;;;;4.82;0.95;;;;;;;17.25;75.92;101765.84;4971569;28;20194;-47
2022/07/05 06:28:05;;;;;;;6.38;1.02;;;;;;;17.72;74.71;101761.59;4971710;28;20571;-44
2022/07/05 06:30:32;;;;;;;5.38;0.95;;;;;;;17.69;73.44;101765.34;4972068;28;20181;-45
2022/07/05 06:32:58;;;;;;;7.85;1.25;;;;;;;17.44;73.40;101781.13;4971194;28;20619;-46
2022/07/05 06:35:24;;;;;;;2.97;1.13;;;;;;;17.85;73.57;101775.41;4971729;28;20189;-43
2022/07/05 06:37:52;;;;;;;1.75;0.90;;;;;;;17.98;72.11;101768.38;4971786;28;20281;-43
2022/07/05 06:40:23;;;;;;;6.35;1.10;;;;;;;18.14;70.78;101772.94;4971817;28;20274;-44
2022/07/05 06:42:49;;;;;;;7.45;1.13;;;;;;;18.04;71.69;101773.47;4971957;28;20171;-44
2022/07/05 06:45:16;;;;;;;5.53;1.20;;;;;;;18.06;72.04;101771.53;4953757;28;20197;-45
2022/07/05 06:47:42;;;;;;;2.80;0.90;;;;;;;18.04;72.49;101773.47;4971640;28;20657;-46
2022/07/05 06:50:07;;;;;;;6.80;1.15;;;;;;;18.65;69.04;101770.97;4971712;28;20215;-47
2022/07/05 06:52:33;;;;;;;4.38;1.08;;;;;;;18.58;70.02;101765.00;4971943;28;20299;-49
2022/07/05 06:54:59;;;;;;;5.15;1.15;;;;;;;18.46;68.63;101773.88;4971406;28;20245;-47
2022/07/05 06:57:25;;;;;;;5.55;1.65;;;;;;;18.29;69.48;101766.66;4971708;28;20202;-49
2022/07/05 06:59:51;;;;;;;7.55;2.05;;;;;;;18.71;69.97;101771.50;4971568;28;20177;-48
2022/07/05 07:02:19;;;;;;;4.07;1.38;;;;;;;18.76;68.17;101762.22;4971761;28;20233;-48
2022/07/05 07:04:44;;;;;;;6.65;1.30;;;;;;;19.15;67.88;101769.91;4971479;28;20240;-46
2022/07/05 07:09:58;;;;;;;10.60;1.48;;;;;;;18.99;67.58;101779.94;4971721;28;20254;-47
2022/07/05 07:12:23;;;;;;;4.95;1.10;;;;;;;19.54;66.46;101773.91;4971360;28;20202;-46
2022/07/05 07:14:49;;;;;;;4.65;0.82;;;;;;;19.06;66.65;101778.59;4971057;28;20162;-46
2022/07/05 07:17:15;;;;;;;5.35;1.15;;;;;;;19.18;66.26;101780.59;4971312;28;20257;-48
2022/07/05 07:19:40;;;;;;;8.10;1.10;;;;;;;19.16;66.70;101777.09;4971575;28;20265;-47
2022/07/05 07:22:06;;;;;;;4.70;1.00;;;;;;;19.54;65.19;101785.66;4971490;28;20209;-47
2022/07/05 07:24:31;;;;;;;2.75;1.05;;;;;;;19.40;65.12;101785.63;4971481;28;20202;-46
2022/07/05 07:27:02;;;;;;;5.82;1.15;;;;;;;18.89;68.20;101788.63;4971378;28;20202;-46
2022/07/05 07:29:28;;;;;;;2.47;0.80;;;;;;;19.25;65.07;101781.09;4971512;28;20253;-48
2022/07/05 07:31:55;;;;;;;3.60;1.02;;;;;;;19.80;64.97;101785.94;4971304;28;20293;-46
2022/07/05 07:34:20;;;;;;;4.05;0.80;;;;;;;20.07;62.64;101786.06;4971077;28;20175;-46
2022/07/05 07:36:46;;;;;;;3.05;1.02;;;;;;;20.44;60.67;101774.66;4938213;28;20185;-50
2022/07/05 07:39:12;;;;;;;3.33;0.93;;;;;;;20.70;60.08;101778.44;4970960;28;20533;-45
2022/07/05 07:41:37;;;;;;;4.20;1.00;;;;;;;20.31;60.92;101790.91;4971344;28;20162;-47
2022/07/05 07:44:03;;;;;;;6.32;1.15;;;;;;;20.45;61.21;101788.19;4970678;28;20268;-49
2022/07/05 07:46:28;;;;;;;3.72;0.70;;;;;;;20.20;60.76;101785.28;4971530;28;20260;-47
2022/07/05 07:48:54;;;;;;;4.20;0.73;;;;;;;20.16;59.82;101790.06;4971008;28;20253;-48
2022/07/05 07:51:21;;;;;;;4.78;1.35;;;;;;;20.00;61.33;101798.28;4971263;28;20209;-46
2022/07/05 07:53:47;;;;;;;2.55;0.60;;;;;;;18.63;62.87;101787.38;4970595;28;20185;-48
2022/07/05 07:56:12;;;;;;;4.43;1.08;;;;;;;19.16;62.22;101790.69;4971465;28;20167;-49
2022/07/05 07:58:38;;;;;;;4.32;0.93;;;;;;;20.08;61.80;101782.38;4974340;28;20681;-51
2022/07/05 08:01:05;;;;;;;2.92;0.63;;;;;;;19.99;60.67;101791.13;4974700;28;20244;-46
2022/07/05 08:03:32;;;;;;;3.15;0.68;;;;;;;19.45;62.50;101782.63;4974353;28;20603;-48
2022/07/05 08:05:57;;;;;;;2.25;0.70;;;;;;;19.25;63.42;101784.69;4974170;28;20189;-44
2022/07/05 08:08:23;;;;;;;1.70;0.60;;;;;;;19.01;62.87;101775.28;4974531;28;20206;-47
2022/07/05 08:10:48;;;;;;;1.98;0.55;;;;;;;18.75;63.87;101780.34;4973942;28;20563;-48
2022/07/05 08:13:14;;;;;;;3.38;0.80;;;;;;;18.27;64.26;101782.16;4974007;28;20205;-45
2022/07/05 08:15:39;;;;;;;5.43;1.13;;;;;;;18.45;65.47;101786.53;4974191;28;20205;-48
2022/07/05 08:23:33;;;;;;;4.18;0.80;;;;;;;18.27;66.65;101803.84;4973568;28;20530;-46
2022/07/05 08:25:58;;;;;;;4.93;1.02;;;;;;;18.65;65.71;101795.41;4973883;28;20186;-47
2022/07/05 08:28:25;;;;;;;1.17;0.60;;;;;;;18.52;65.70;101806.09;4974125;28;20279;-48
2022/07/05 08:30:51;;;;;;;2.88;0.75;;;;;;;18.67;64.50;101793.47;4983206;28;20197;-47
2022/07/05 08:33:16;;;;;;;2.30;0.77;;;;;;;18.64;64.63;101796.38;4992939;28;20648;-49
2022/07/05 08:35:42;;;;;;;4.30;0.63;;;;;;;18.39;63.15;101789.63;4993156;28;20535;-47
2022/07/05 08:38:07;;;;;;;2.08;0.70;;;;;;;18.29;62.81;101796.50;4993095;28;20320;-48
2022/07/05 08:40:38;;;;;;;4.72;0.80;;;;;;;18.20;63.25;101806.03;4993156;28;20181;-46
2022/07/05 08:43:06;;;;;;;2.78;0.60;;;;;;;18.16;63.11;101811.72;4993171;28;20178;-50
2022/07/05 08:45:33;;;;;;;2.10;0.80;;;;;;;17.89;62.97;101813.13;4993302;28;20196;-48
2022/07/05 08:47:59;;;;;;;4.30;0.63;;;;;;;17.55;63.62;101823.94;4992976;28;20227;-47
2022/07/05 08:50:26;;;;;;;3.00;0.70;;;;;;;17.70;64.40;101815.88;4993209;28;20188;-47
2022/07/05 08:52:52;;;;;;;4.57;1.13;;;;;;;17.55;64.20;101813.97;4992823;28;20193;-50
2022/07/05 08:55:18;;;;;;;2.50;0.50;;;;;;;17.87;62.64;101823.16;4992973;28;20176;-50
2022/07/05 08:57:44;;;;;;;1.75;0.60;;;;;;;18.41;61.76;101822.06;4992909;28;20197;-48
2022/07/05 09:00:10;;;;;;;2.47;0.75;;;;;;;18.52;61.35;101814.25;4993154;28;20547;-48
2022/07/05 09:02:36;;;;;;;3.78;0.70;;;;;;;18.77;63.29;101819.16;4992653;28;20197;-48
2022/07/05 09:05:02;;;;;;;3.50;1.00;;;;;;;18.90;62.39;101816.66;4992257;28;20629;-48
2022/07/05 09:07:30;;;;;;;3.88;1.00;;;;;;;18.59;61.07;101821.06;4992564;28;20208;-46
2022/07/05 09:09:59;;;;;;;1.80;0.60;;;;;;;18.46;62.10;101825.44;4975303;28;20181;-48
2022/07/05 09:12:25;;;;;;;3.47;0.88;;;;;;;18.04;62.50;101822.28;4992491;28;20208;-47
2022/07/05 09:14:52;;;;;;;4.63;1.25;;;;;;;18.25;63.63;101819.34;4992192;28;20162;-48
2022/07/05 09:17:18;;;;;;;3.78;0.75;;;;;;;17.82;65.27;101814.41;4992578;28;20685;-49
2022/07/05 09:19:43;;;;;;;2.38;0.60;;;;;;;17.79;66.28;101808.22;4992070;28;20185;-47
2022/07/05 09:22:09;;;;;;;6.55;0.70;;;;;;;17.97;64.98;101819.94;4992465;28;20216;-47
2022/07/05 09:24:45;;;;;;;3.47;0.70;;;;;;;18.00;63.36;101826.09;4974459;28;20193;-47
2022/07/05 09:27:11;;;;;;;1.85;0.75;;;;;;;17.91;61.97;101824.75;4992144;28;20215;-47
2022/07/05 09:29:36;;;;;;;3.10;0.50;;;;;;;18.40;61.70;101813.06;4992390;28;20220;-48
2022/07/05 09:32:02;;;;;;;2.20;0.70;;;;;;;18.92;59.36;101812.88;4992276;28;20655;-47
2022/07/05 09:34:29;;;;;;;3.05;0.70;;;;;;;19.49;59.37;101820.41;4991494;28;20185;-49
2022/07/05 09:37:02;;;;;;;3.10;0.73;;;;;;;19.92;56.82;101811.50;4992202;28;20205;-48
2022/07/05 09:39:36;;;;;;;3.70;0.65;;;;;;;20.37;56.06;101823.19;4991937;28;20197;-48
2022/07/05 09:42:25;;;;;;;3.95;0.77;;;;;;;19.92;56.64;101814.25;4992298;28;20280;-46
2022/07/05 09:44:53;;;;;;;1.08;0.60;;;;;;;20.19;56.92;101806.19;4983896;28;20205;-47
2022/07/05 09:47:21;;;;;;;3.25;0.63;;;;;;;19.68;57.06;101806.56;4992057;28;20202;-49
2022/07/05 09:49:48;;;;;;;1.85;0.40;;;;;;;19.50;58.11;101816.72;4991895;28;20181;-47
2022/07/05 09:52:34;;;;;;;1.88;0.80;;;;;;;19.15;59.46;101824.22;4991765;28;20219;-50
2022/07/05 09:55:18;;;;;;;5.38;0.70;;;;;;;18.86;59.36;101818.66;4973878;28;20176;-47
2022/07/05 09:57:44;;;;;;;3.35;0.95;;;;;;;18.36;60.59;101829.59;4990707;28;20688;-48
2022/07/05 10:00:15;;;;;;;1.67;0.60;;;;;;;18.29;60.90;101831.78;4954995;28;20240;-48
2022/07/05 10:02:49;;;;;;;4.53;0.65;;;;;;;18.24;62.07;101840.19;4972111;28;20195;-49
2022/07/05 10:05:16;;;;;;;1.05;0.47;;;;;;;18.35;61.28;101842.31;4971783;28;20804;-48
2022/07/05 10:07:53;;;;;;;3.08;0.60;;;;;;;18.16;59.69;101836.13;4971703;28;20252;-49
2022/07/05 10:10:27;;;;;;;4.78;0.60;;;;;;;18.02;60.93;101840.47;4955294;28;20182;-48
2022/07/05 10:12:58;;;;;;;2.13;0.50;;;;;;;18.00;59.76;101834.25;4971806;28;20261;-49
2022/07/05 10:15:30;;;;;;;2.22;0.50;;;;;;;18.36;58.77;101832.31;4971913;28;20189;-48
2022/07/05 10:18:11;;;;;;;3.00;0.60;;;;;;;18.24;58.43;101829.31;4954625;28;20206;-48
2022/07/05 10:20:37;;;;;;;4.15;0.70;;;;;;;18.21;59.03;101823.19;4971583;28;20592;-48
2022/07/05 10:23:12;;;;;;;3.08;0.85;;;;;;;18.04;60.96;101833.13;4971297;28;20174;-47
2022/07/05 10:25:39;;;;;;;2.47;0.50;;;;;;;18.04;60.76;101822.28;4971927;28;20165;-49
2022/07/05 10:28:06;;;;;;;2.22;1.02;;;;;;;18.35;60.42;101828.75;4954667;28;20190;-47
2022/07/05 10:30:33;;;;;;;1.27;0.50;;;;;;;18.82;60.51;101819.78;4971898;28;20237;-48
2022/07/05 10:33:01;;;;;;;2.08;0.55;;;;;;;19.21;59.53;101817.56;4971508;28;20180;-48
2022/07/05 10:35:27;;;;;;;3.40;0.60;;;;;;;19.49;57.48;101820.41;4971663;28;20182;-49
2022/07/05 10:37:53;;;;;;;0.73;0.50;;;;;;;19.49;59.25;101823.13;4972057;28;20241;-48
2022/07/05 10:40:19;;;;;;;2.80;0.75;;;;;;;19.07;60.09;101821.09;4971459;28;20213;-49
2022/07/05 10:42:47;;;;;;;2.70;0.65;;;;;;;19.03;59.54;101824.97;4971937;28;20220;-47
2022/07/05 10:45:28;;;;;;;2.25;0.60;;;;;;;19.52;57.20;101824.78;4970933;28;20185;-47
2022/07/05 10:48:09;;;;;;;3.05;0.95;;;;;;;19.27;59.49;101819.94;4972037;28;20210;-48
2022/07/05 10:51:16;;;;;;;1.83;0.70;;;;;;;19.05;60.10;101815.75;4971210;28;20189;-48
2022/07/05 10:53:41;;;;;;;3.65;0.65;;;;;;;18.97;60.09;101820.75;4971615;28;20623;-48
2022/07/05 10:56:06;;;;;;;1.92;0.73;;;;;;;19.68;59.26;101812.00;4971350;28;20272;-48
2022/07/05 10:58:39;;;;;;;0.75;0.50;;;;;;;20.61;56.99;101819.91;4954113;28;20209;-46
2022/07/05 11:01:20;;;;;;;2.63;0.60;;;;;;;19.94;57.40;101823.16;4971567;28;20182;-48
2022/07/05 11:03:47;;;;;;;2.75;0.50;;;;;;;20.22;56.40;101824.16;4970846;28;20200;-48
2022/07/05 11:06:42;;;;;;;2.08;0.57;;;;;;;19.90;55.78;101817.03;4971597;28;20221;-49
2022/07/05 11:09:11;;;;;;;6.20;0.80;;;;;;;20.64;55.05;101811.50;4966092;28;20550;-48
2022/07/05 11:11:40;;;;;;;1.60;0.60;;;;;;;20.50;55.61;101815.97;4971086;28;20202;-47
2022/07/05 11:14:25;;;;;;;4.18;0.70;;;;;;;20.81;55.80;101800.38;4953981;28;20170;-47
2022/07/05 11:17:09;;;;;;;3.90;0.80;;;;;;;20.05;57.99;101819.75;4971362;28;20221;-48
2022/07/05 11:19:55;;;;;;;3.33;0.85;;;;;;;19.56;59.38;101815.47;4954031;28;20197;-48
2022/07/05 11:22:20;;;;;;;2.55;0.68;;;;;;;19.82;57.79;101819.34;4970929;28;20221;-48
2022/07/05 11:24:47;;;;;;;3.35;0.70;;;;;;;19.71;59.22;101825.44;4970533;28;20276;-47
2022/07/05 11:27:12;;;;;;;3.22;0.77;;;;;;;19.11;61.54;101838.94;4971329;28;20682;-50
2022/07/05 11:29:51;;;;;;;4.38;1.10;;;;;;;19.23;61.88;101842.81;4971710;28;20178;-49
2022/07/05 11:32:19;;;;;;;4.60;0.95;;;;;;;19.95;59.89;101836.66;4974207;28;20588;-46
2022/07/05 11:34:53;;;;;;;6.82;1.13;;;;;;;20.33;59.63;101824.34;4974584;28;20186;-47
2022/07/05 11:37:18;;;;;;;3.78;0.90;;;;;;;19.55;62.34;101833.63;4974467;28;20206;-49